createdAt,value
2023-04-05T00:08:02.079Z,100.00
2023-04-05T00:23:06.571Z,100.00
2023-04-05T00:38:08.321Z,100.00
2023-04-05T00:53:10.566Z,100.00
2023-04-05T01:08:20.442Z,100.00
2023-04-05T01:23:28.199Z,100.00
2023-04-05T01:38:32.090Z,100.00
2023-04-05T01:53:34.134Z,100.00
2023-04-05T02:08:35.857Z,100.00
2023-04-05T02:23:38.190Z,100.00
2023-04-05T02:38:40.072Z,100.00
2023-04-05T02:53:42.569Z,100.00
2023-04-05T03:08:44.320Z,100.00
2023-04-05T03:23:46.682Z,100.00
2023-04-05T03:38:48.624Z,100.00
2023-04-05T03:53:51.702Z,100.00
2023-04-05T04:08:53.402Z,100.00
2023-04-05T04:23:55.835Z,100.00
2023-04-05T04:38:57.436Z,100.00
2023-04-05T04:53:59.223Z,97.79
2023-04-05T05:09:01.380Z,97.24
2023-04-05T05:24:03.131Z,100.00
2023-04-05T05:39:08.055Z,100.00
2023-04-05T05:54:09.886Z,96.15
2023-04-05T06:09:11.517Z,92.43
2023-04-05T06:24:13.157Z,88.67
2023-04-05T06:39:14.922Z,90.47
2023-04-05T06:54:16.842Z,89.66
2023-04-05T07:09:18.457Z,89.10
2023-04-05T07:24:20.047Z,88.24
2023-04-05T07:39:22.120Z,88.79
2023-04-05T07:54:24.128Z,87.30
2023-04-05T08:09:26.063Z,86.80
2023-04-05T08:24:28.292Z,85.92
2023-04-05T08:39:29.965Z,85.95
2023-04-05T08:54:31.774Z,87.52
2023-04-05T09:09:36.256Z,86.20
2023-04-05T09:24:43.182Z,84.05
2023-04-05T09:39:46.145Z,87.47
2023-04-05T09:54:48.049Z,89.74
2023-04-05T10:09:49.881Z,86.04
2023-04-05T10:25:05.245Z,85.00
2023-04-05T10:40:12.978Z,84.96
2023-04-05T10:55:16.750Z,86.25
2023-04-05T11:10:19.593Z,85.74
2023-04-05T11:25:25.210Z,84.26
2023-04-05T11:40:34.871Z,88.59
2023-04-05T11:55:37.326Z,87.25
2023-04-05T12:10:39.023Z,83.93
2023-04-05T12:25:42.849Z,86.49
2023-04-05T12:40:45.638Z,87.66
2023-04-05T12:55:56.969Z,88.01
2023-04-05T13:10:58.609Z,89.70
2023-04-05T13:26:00.276Z,89.03
2023-04-05T13:41:01.895Z,88.40
2023-04-05T13:56:03.712Z,86.42
2023-04-05T14:11:07.984Z,87.84
2023-04-05T14:26:09.546Z,87.07
2023-04-05T14:41:11.515Z,84.90
2023-04-05T14:56:13.379Z,85.94
2023-04-05T15:11:15.194Z,84.56
2023-04-05T15:26:16.871Z,84.51
2023-04-05T15:41:21.124Z,85.21
2023-04-05T15:56:23.264Z,87.68
2023-04-05T16:11:25.198Z,87.57
2023-04-05T16:26:27.379Z,89.26
2023-04-05T16:41:29.081Z,89.47
2023-04-05T16:56:30.985Z,90.06
2023-04-05T17:11:35.517Z,89.80
2023-04-05T17:26:37.334Z,90.09
2023-04-05T17:41:39.401Z,91.85
2023-04-05T17:56:41.518Z,92.14
2023-04-05T18:11:43.185Z,88.95
2023-04-05T18:26:44.976Z,87.78
2023-04-05T18:41:47.187Z,85.49
2023-04-05T18:56:49.429Z,88.24
2023-04-05T19:11:51.144Z,86.08
2023-04-05T19:26:52.928Z,85.66
2023-04-05T19:41:54.797Z,83.95
2023-04-05T19:56:57.150Z,82.85
2023-04-05T20:12:01.653Z,83.61
2023-04-05T20:27:04.210Z,85.72
2023-04-05T20:42:07.445Z,84.31
2023-04-05T20:57:10.077Z,81.61
2023-04-05T21:12:12.541Z,84.88
2023-04-05T21:27:14.380Z,83.91
2023-04-05T21:42:16.232Z,84.55
2023-04-05T21:57:18.150Z,83.29
2023-04-05T22:12:22.318Z,81.69
2023-04-05T22:27:24.144Z,82.34
2023-04-05T22:42:26.076Z,80.67
2023-04-05T22:57:28.068Z,80.73
2023-04-05T23:12:29.726Z,80.67
2023-04-05T23:27:31.938Z,79.14
2023-04-05T23:42:33.725Z,80.63
2023-04-05T23:57:35.750Z,80.49
